Weather at Kadina Airport

Public forecast

Using degrees Celsius for public forecast. Weather courtesy of forecast.io.

Closest aviation weather report (METAR) to Kadina Airport

Closest report is Whyalla Airport, 55.2 nm (102.2 km) N. Retrieved 2021/06/25 12:00 UTC (1 hour ago):

YWHA 251200Z AUTO 28007KT 9999 // BKN091 09/08 Q1022

Closest aviation forecast (TAF) to Kadina Airport

Forecast is more than 12 hours old.

Closest forecast is Whyalla Airport, 55.2 nm (102.2 km) N. Retrieved 2018/11/15 18:03 UTC (3 years ago):

TAF YWHA 151701Z 1518/1608 VRB05KT CAVOK FM152300 18012KT CAVOK FM160200 18018KT CAVOK